Flight Track Log - Related Links

Times and Time Zones

All times are in EDT time to prevent confusion due to time zone crossing. See the NKS843 flight status page for this flight to view local times or setup timezone preferences in your user account.

Time Position Orientation Groundspeed Altitude Reporting Facility
EDT Latitude Longitude Course Direction KTS MPH feet Rate Location/Type
Thu 08:04:20 AM 41.9620 -87.8890 222° Southwest 135 155  Level FlightAware ADS-B
Thu 08:04:42 AM 41.9450 -87.9040 213° Southwest 166 191 1,500 3,840 Climbing FlightAware ADS-B
Thu 08:04:45 AM 41.9420 -87.9040 180° South 169 194 1,600 1,548 Climbing FlightAware ADS-B
Thu 08:05:13 AM 41.9190 -87.9020 176° South 197 227 2,300 1,579 Climbing FlightAware ADS-B
Thu 08:05:23 AM 41.9100 -87.9010 175° South 205 236 2,600 2,118 Climbing FlightAware ADS-B
Thu 08:05:47 AM 41.8870 -87.8970 173° South 213 245 3,500 2,182 Climbing FlightAware ADS-B
Thu 08:06:07 AM 41.8650 -87.8940 174° South 228 262 4,200 1,857 Climbing FlightAware ADS-B
Thu 08:06:29 AM 41.8420 -87.8880 169° South 256 295 4,800 1,579 Climbing FlightAware ADS-B
Thu 08:06:45 AM 41.8260 -87.8760 151° Southeast 280 322 5,200 2,550 Climbing FlightAware ADS-B
Thu 08:07:09 AM 41.7950 -87.8530 151° Southeast 296 341 6,500 3,353 Climbing FlightAware ADS-B
Thu 08:07:19 AM 41.7820 -87.8440 153° Southeast 293 337 7,100 3,333 Climbing FlightAware ADS-B
Thu 08:07:45 AM 41.7510 -87.8210 151° Southeast 299 344 8,500 3,000 Climbing FlightAware ADS-B
Thu 08:08:05 AM 41.7260 -87.8020 150° Southeast 309 356 9,400 2,893 Climbing FlightAware ADS-B
Thu 08:08:41 AM 41.6840 -87.7690 150° Southeast 316 364 11,200 2,750 Climbing FlightAware ADS-B
Thu 08:09:17 AM 41.6360 -87.7330 151° Southeast 328 377 12,700 2,206 Climbing FlightAware ADS-B
Thu 08:09:49 AM 41.5900 -87.6970 150° Southeast 353 406 13,700 1,455 Climbing FlightAware ADS-B
Thu 08:10:23 AM 41.5400 -87.6600 151° Southeast 389 448 14,300 1,432 Climbing FlightAware ADS-B
Thu 08:11:17 AM 41.4720 -87.6080 150° Southeast 403 464 15,800 2,022 Climbing FlightAware ADS-B
Thu 08:11:52 AM 41.4000 -87.5680 157° South 400 460 17,300 2,261 Climbing FlightAware ADS-B
Thu 08:12:26 AM 41.3450 -87.5580 172° South 404 465 18,400 2,174 Climbing FlightAware ADS-B
Thu 08:13:01 AM 41.2610 -87.5440 173° South 416 479 19,800 2,100 Climbing FlightAware ADS-B
Thu 08:13:26 AM 41.2160 -87.5280 165° South 428 493 20,500 1,579 Climbing FlightAware ADS-B
Thu 08:13:58 AM 41.1570 -87.4920 155° Southeast 439 505 21,300 1,652 Climbing FlightAware ADS-B
Thu 08:14:35 AM 41.0860 -87.4510 156° South 445 512 22,400 1,739 Climbing FlightAware ADS-B
Thu 08:15:07 AM 41.0250 -87.4160 157° South 444 511 23,300 1,333 Climbing FlightAware ADS-B
Thu 08:15:38 AM 40.9710 -87.3850 157° South 453 521 23,800 1,015 Climbing FlightAware ADS-B
Thu 08:16:12 AM 40.9030 -87.3470 157° South 464 534 24,400 1,247 Climbing FlightAware ADS-B
Thu 08:16:55 AM 40.8180 -87.2980 156° South 472 543 25,400 1,500 Climbing FlightAware ADS-B
Thu 08:17:28 AM 40.7540 -87.2610 156° South 474 545 26,300 1,391 Climbing FlightAware ADS-B
Thu 08:18:04 AM 40.6790 -87.2190 157° South 479 551 27,000 1,059 Climbing FlightAware ADS-B
Thu 08:18:36 AM 40.6120 -87.1810 157° South 488 562 27,500 985 Climbing FlightAware ADS-B
Thu 08:19:11 AM 40.5430 -87.1420 157° South 494 568 28,100 1,167 Climbing FlightAware ADS-B
Thu 08:19:48 AM 40.4590 -87.0940 156° South 499 574 28,900 1,333 Climbing FlightAware ADS-B
Thu 08:19:56 AM 40.4410 -87.0840 157° South 500 575 29,100 778 Climbing FlightAware ADS-B
Thu 08:20:42 AM 40.3760 -87.0470 157° South 503 579 29,600 794 Climbing FlightAware ADS-B
Thu 08:22:12 AM 40.1440 -86.9170 157° South 525 604 30,900 857 Climbing FlightAware ADS-B
Thu 08:22:48 AM 40.0670 -86.8740 157° South 530 610 31,400 828 Climbing FlightAware ADS-B
Thu 08:23:10 AM 40.0190 -86.8480 157° South 534 615 31,700 529 Climbing FlightAware ADS-B
Thu 08:23:56 AM 39.9130 -86.7860 156° South 539 620 32,000 300 Climbing FlightAware ADS-B
Thu 08:24:10 AM 39.8810 -86.7640 152° Southeast 541 623 32,000  Level FlightAware ADS-B
Thu 08:25:15 AM 39.7480 -86.6390 144° Southeast 546 628 32,000  Level FlightAware ADS-B
Thu 08:25:51 AM 39.6840 -86.5580 136° Southeast 547 629 32,000  Level FlightAware ADS-B
Thu 08:26:19 AM 39.6380 -86.4860 130° Southeast 547 629 32,000 281 Level FlightAware ADS-B
Thu 08:26:55 AM 39.5870 -86.3870 124° Southeast 545 627 32,300 474 Climbing FlightAware ADS-B
Thu 08:27:35 AM 39.5370 -86.2740 120° Southeast 540 621 32,600 553 Climbing FlightAware ADS-B
Thu 08:28:11 AM 39.4930 -86.1740 120° Southeast 536 617 33,000 676 Climbing FlightAware ADS-B
Thu 08:28:46 AM 39.4500 -86.0760 120° Southeast 541 623 33,400 761 Climbing FlightAware ADS-B
Thu 08:29:22 AM 39.4060 -85.9760 120° Southeast 543 625 33,900 1,000 Climbing FlightAware ADS-B
Thu 08:29:58 AM 39.3610 -85.8750 120° Southeast 541 623 34,600 1,043 Climbing FlightAware ADS-B
Thu 08:30:31 AM 39.3200 -85.7820 120° Southeast 542 624 35,100 870 Climbing FlightAware ADS-B
Thu 08:31:07 AM 39.2760 -85.6840 120° Southeast 545 627 35,600 1,083 Climbing FlightAware ADS-B
Thu 08:31:43 AM 39.2290 -85.5800 120° Southeast 539 620 36,400 957 Climbing FlightAware ADS-B
Thu 08:32:16 AM 39.1890 -85.4900 120° Southeast 541 623 36,700 537 Climbing FlightAware ADS-B
Thu 08:32:50 AM 39.1450 -85.3920 120° Southeast 536 617 37,000 261 Climbing FlightAware ADS-B
Thu 08:33:25 AM 39.1030 -85.3000 120° Southeast 534 615 37,000  Level FlightAware ADS-B
Thu 08:34:02 AM 39.0560 -85.1960 120° Southeast 534 615 37,000  Level FlightAware ADS-B
Thu 08:34:34 AM 39.0040 -85.1170 130° Southeast 536 617 37,000  Level FlightAware ADS-B
Thu 08:35:10 AM 38.9410 -85.0360 135° Southeast 535 616 37,000  Level FlightAware ADS-B
Thu 08:35:46 AM 38.8790 -84.9560 135° Southeast 533 613 37,000  Level FlightAware ADS-B
Thu 08:36:20 AM 38.8190 -84.8800 135° Southeast 533 613 37,000  Level FlightAware ADS-B
Thu 08:36:58 AM 38.7530 -84.7960 135° Southeast 531 611 37,000  Level FlightAware ADS-B
Thu 08:37:30 AM 38.6980 -84.7250 135° Southeast 529 609 37,000  Level FlightAware ADS-B
Thu 08:38:16 AM 38.6190 -84.6260 136° Southeast 528 608 37,000  Level FlightAware ADS-B
Thu 08:38:48 AM 38.5620 -84.5540 135° Southeast 528 608 37,000  Level FlightAware ADS-B
Thu 08:39:24 AM 38.4980 -84.4740 136° Southeast 528 608 37,000  Level FlightAware ADS-B
Thu 08:39:54 AM 38.4490 -84.4110 135° Southeast 528 608 37,000  Level FlightAware ADS-B
Thu 08:40:55 AM 38.3610 -84.3010 136° Southeast 527 606 37,000  Level FlightAware ADS-B
Thu 08:41:32 AM 38.2770 -84.1960 136° Southeast 525 604 37,000  Level FlightAware ADS-B
Thu 08:42:01 AM 38.2280 -84.1350 136° Southeast 523 602 37,000  Level FlightAware ADS-B
Thu 08:42:32 AM 38.1730 -84.0670 136° Southeast 521 600 37,000  Level FlightAware ADS-B
Thu 08:43:41 AM 38.0600 -83.9270 136° Southeast 518 596 37,000  Level FlightAware ADS-B
Thu 08:44:16 AM 37.9970 -83.8480 135° Southeast 516 594 37,000  Level FlightAware ADS-B
Thu 08:44:48 AM 37.9410 -83.7790 136° Southeast 516 594 37,000  Level FlightAware ADS-B
Thu 08:45:18 AM 37.8890 -83.7160 136° Southeast 515 593 37,000  Level FlightAware ADS-B
Thu 08:46:05 AM 37.8100 -83.6190 136° Southeast 515 593 37,000  Level FlightAware ADS-B
Thu 08:46:42 AM 37.7510 -83.5460 136° Southeast 514 592 37,000  Level FlightAware ADS-B
Thu 08:47:18 AM 37.6850 -83.4660 136° Southeast 512 589 37,000  Level FlightAware ADS-B
Thu 08:47:58 AM 37.6170 -83.3830 136° Southeast 510 587 37,000  Level FlightAware ADS-B
Thu 08:48:07 AM 37.5993 -83.3618 136° Southeast 511 588 37,000  Level FlightAware ADS-B
Thu 08:48:38 AM 37.5475 -83.2985 136° Southeast 509 586 37,000  Level FlightAware ADS-B
Thu 08:49:09 AM 37.4966 -83.2369 136° Southeast 508 585 37,000  Level FlightAware ADS-B
Thu 08:49:43 AM 37.4381 -83.1665 136° Southeast 506 582 37,000  Level FlightAware ADS-B
Thu 08:50:13 AM 37.3871 -83.1049 136° Southeast 504 580 37,000  Level FlightAware ADS-B
Thu 08:50:43 AM 37.3374 -83.0448 136° Southeast 501 577 37,000  Level FlightAware ADS-B
Thu 08:51:14 AM 37.2854 -82.9827 136° Southeast 501 577 37,000  Level FlightAware ADS-B
Thu 08:51:45 AM 37.2328 -82.9195 136° Southeast 501 577 37,000  Level FlightAware ADS-B
Thu 08:52:17 AM 37.1798 -82.8561 136° Southeast 501 577 37,000  Level FlightAware ADS-B
Thu 08:52:48 AM 37.1274 -82.7935 136° Southeast 502 578 37,000  Level FlightAware ADS-B
Thu 08:53:20 AM 37.0741 -82.7301 136° Southeast 504 580 37,000  Level FlightAware ADS-B
Thu 08:53:50 AM 37.0224 -82.6687 137° Southeast 506 582 37,000  Level FlightAware ADS-B
Thu 08:54:22 AM 36.9696 -82.6058 136° Southeast 508 585 37,000  Level FlightAware ADS-B
Thu 08:54:53 AM 36.9155 -82.5414 136° Southeast 509 586 37,000  Level FlightAware ADS-B
Thu 08:55:24 AM 36.8631 -82.4796 137° Southeast 511 588 37,000  Level FlightAware ADS-B
Thu 08:55:55 AM 36.8109 -82.4181 137° Southeast 511 588 37,000  Level FlightAware ADS-B
Thu 08:56:33 AM 36.7444 -82.3404 137° Southeast 511 588 37,000 69 Level FlightAware ADS-B
Thu 08:57:22 AM 36.6599 -82.2408 137° Southeast 509 586 37,100 73 Climbing FlightAware ADS-B
Thu 08:57:55 AM 36.6048 -82.1762 137° Southeast 504 580 37,100 -95 Level FlightAware ADS-B
Thu 08:58:25 AM 36.5532 -82.1160 137° Southeast 502 578 37,000 -98 Descending FlightAware ADS-B
Thu 08:58:56 AM 36.5016 -82.0559 137° Southeast 499 574 37,000  Level FlightAware ADS-B
Thu 08:59:26 AM 36.4511 -81.9970 137° Southeast 494 568 37,000 -300 Level FlightAware ADS-B
Thu 08:59:56 AM 36.4018 -81.9397 137° Southeast 490 564 36,700 -787 Descending FlightAware ADS-B
Thu 09:00:27 AM 36.3508 -81.8809 137° Southeast 476 548 36,200 -689 Descending FlightAware ADS-B
Thu 09:00:57 AM 36.3031 -81.8254 137° Southeast 463 533 36,000 -904 Descending FlightAware ADS-B
Thu 09:01:40 AM 36.2368 -81.7488 137° Southeast 463 533 35,100 -822 Descending FlightAware ADS-B
Thu 09:02:10 AM 36.1900 -81.6950 137° Southeast 477 549 35,000 -100 Descending FlightAware ADS-B
Thu 09:02:40 AM 36.1410 -81.6390 137° Southeast 487 560 35,000  Level FlightAware ADS-B
Thu 09:03:20 AM 36.0730 -81.5610 137° Southeast 483 556 35,000  Level FlightAware ADS-B
Thu 09:03:35 AM 36.0493 -81.5335 137° Southeast 483 556 35,000  Level FlightAware ADS-B
Thu 09:04:08 AM 35.9948 -81.4711 137° Southeast 480 552 35,000  Level FlightAware ADS-B
Thu 09:04:41 AM 35.9430 -81.4121 137° Southeast 478 550 35,000  Level FlightAware ADS-B
Thu 09:05:18 AM 35.8820 -81.3423 137° Southeast 476 548 35,000  Level FlightAware ADS-B
Thu 09:05:49 AM 35.8308 -81.2840 137° Southeast 476 548 35,000  Level FlightAware ADS-B
Thu 09:06:35 AM 35.7561 -81.1995 137° Southeast 477 549 35,000  Level FlightAware ADS-B
Thu 09:07:22 AM 35.6820 -81.1150 137° Southeast 477 549 35,000  Level FlightAware ADS-B
Thu 09:08:26 AM 35.5770 -80.9970 137° Southeast 476 548 35,000  Level FlightAware ADS-B
Thu 09:09:14 AM 35.5010 -80.9110 137° Southeast 474 545 35,000 -308 Level FlightAware ADS-B
Thu 09:09:44 AM 35.4520 -80.8570 138° Southeast 474 545 34,600 -794 Descending FlightAware ADS-B
Thu 09:10:22 AM 35.3890 -80.7860 137° Southeast 477 549 34,100 -868 Descending FlightAware ADS-B
Thu 09:11:00 AM 35.3270 -80.7170 138° Southeast 474 545 33,500 -971 Descending FlightAware ADS-B
Thu 09:11:30 AM 35.2840 -80.6690 138° Southeast 476 548 33,000 -806 Descending FlightAware ADS-B
Thu 09:12:07 AM 35.2380 -80.6170 137° Southeast 476 548 32,600 -971 Descending FlightAware ADS-B
Thu 09:12:38 AM 35.1680 -80.5400 138° Southeast 474 545 31,900 -1,151 Descending FlightAware ADS-B
Thu 09:13:20 AM 35.0990 -80.4630 138° Southeast 473 544 31,200 -1,308 Descending FlightAware ADS-B
Thu 09:13:56 AM 35.0430 -80.4000 137° Southeast 478 550 30,200 -2,118 Descending FlightAware ADS-B
Thu 09:14:28 AM 34.9890 -80.3420 139° Southeast 476 548 28,800 -2,294 Descending FlightAware ADS-B
Thu 09:15:04 AM 34.9330 -80.2800 138° Southeast 468 539 27,600 -1,588 Descending FlightAware ADS-B
Thu 09:15:36 AM 34.8800 -80.2210 138° Southeast 473 544 27,000 -500 Descending FlightAware ADS-B
Thu 09:16:16 AM 34.8140 -80.1490 138° Southeast 475 547 27,000 -79 Level FlightAware ADS-B
Thu 09:16:52 AM 34.7550 -80.0840 138° Southeast 471 542 26,900 -1,216 Descending FlightAware ADS-B
Thu 09:17:30 AM 34.6940 -80.0170 138° Southeast 468 539 25,500 -2,000 Descending FlightAware ADS-B
Thu 09:18:04 AM 34.6410 -79.9590 138° Southeast 452 520 24,500 -1,941 Descending FlightAware ADS-B
Thu 09:18:38 AM 34.5890 -79.9030 138° Southeast 442 509 23,300 -2,123 Descending FlightAware ADS-B
Thu 09:19:09 AM 34.5960 -79.9100 321° Northwest 444 511 22,200 -2,366 Descending FlightAware ADS-B
Thu 09:19:49 AM 34.4830 -79.7880 138° Southeast 427 491 20,500 -2,258 Descending FlightAware ADS-B
Thu 09:20:42 AM 34.4053 -79.7067 138° Southeast 436 502 18,700 -2,124 Descending Jacksonville Center
Thu 09:21:42 AM 34.3217 -79.6142 138° Southeast 428 493 16,500 -2,200 Descending Jacksonville Center
Thu 09:22:42 AM 34.2422 -79.5292 138° Southeast 413 475 14,300 -2,200 Descending Jacksonville Center
Thu 09:23:42 AM 34.1628 -79.4419 138° Southeast 391 450 12,100 -1,750 Descending Jacksonville Center
Thu 09:24:42 AM 34.0878 -79.3697 141° Southeast 385 443 10,800 -1,200 Descending Jacksonville Center
Thu 09:25:42 AM 34.0189 -79.2997 140° Southeast 356 410 9,700 -1,700 Descending Jacksonville Center
Thu 09:26:42 AM 33.9586 -79.2322 137° Southeast 323 372 7,400 -2,250 Descending Jacksonville Center
Thu 09:27:42 AM 33.9144 -79.1514 123° Southeast 303 349 5,200 -1,450 Descending Jacksonville Center
Thu 09:28:42 AM 33.8806 -79.0678 116° Southeast 277 319 4,500 -1,150 Descending Jacksonville Center
Thu 09:29:42 AM 33.8517 -79.0042 119° Southeast 245 282 2,900 -1,350 Descending Jacksonville Center
Thu 09:30:42 AM 33.8044 -78.9661 146° Southeast 214 246 1,800 -1,100 Descending Jacksonville Center
Thu 09:32:00 AM 33.6797 -78.9283 140° Southeast  Level Estimated
Thu 09:39:00 AM 33.6797 -78.9283 140° Southeast  Level Estimated

Login

Don't have an account? Register now (free) for customized features, flight alerts, and more!